Terminal Aerodrome Forecast
Issued by NWS

Home | Current Version | Previous Version | Text Only | Print | Product List | Glossary On
Versions: 1 2 3 4 5 6 7 8 9 10 11 12 13 14 15 16 17 18 19 20
000
FTUS44 KCRP 201100
TAFLRD
TAF
KLRD 201129Z 2012/2112 03007KT P6SM OVC007
      TEMPO 2012/2015 OVC005
     FM201800 05007KT P6SM BKN015
     FM202000 05007KT P6SM SCT020 BKN050
     FM210900 09005KT 6SM BR OVC007=

USA.gov is the U.S. government's official web portal to all federal, state and local government web resources and services.